Latest Weather Observations for Westmere

IDV60801

Issued at 3:02 pm EST Tuesday 30 June 2015 (issued every 30 minutes, with the page automatically refreshed every 10 minutes)

About weather observations | Map of weather stations | Latest weather observations for VIC | Other Formats
Station Details ID: 089112 Name: WESTMERE Lat: -37.71 Lon: 142.94 Height: 226.0 m
Data from the previous 72 hours. | See also: Recent months at Westmere
Date/Time
EST
Temp
°C
App
Temp
°C
Dew
Point
Rel
Hum
%
Delta-T
°C
Wind Press
QNH
hPa
Press
MSL
hPa
Rain
since 9 am
mm
Dir
 
Spd
km/h
Gust
km/h
Spd
kts
Gust
kts
30/03:00pm 10.8 8.7 6.0 72 2.2 W 6 7 3 4 1027.5 1027.9 0.0
30/02:30pm 10.8 7.9 6.7 76 1.9 WSW 11 15 6 8 1027.6 1028.0 0.0
30/02:00pm 10.8 7.5 6.2 73 2.2 WSW 13 19 7 10 1027.6 1028.0 0.0
30/01:30pm 10.9 8.5 5.2 68 2.6 WSW 7 11 4 6 1027.7 1028.1 0.0
30/01:00pm 10.9 8.6 4.8 66 2.8 WSW 6 9 3 5 1027.8 1028.2 0.0
30/12:30pm 10.9 9.4 5.0 67 2.7 WNW 2 6 1 3 1028.3 1028.7 0.0
30/12:00pm 10.4 8.3 6.5 77 1.8 NW 7 9 4 5 1028.6 1029.0 0.0
30/11:30am 9.8 8.0 7.1 83 1.3 NW 6 9 3 5 1029.0 1029.4 0.0
30/11:00am 8.8 7.7 6.9 88 0.9 N 2 4 1 2 1029.3 1029.7 0.0
30/10:30am 8.4 6.5 6.7 89 0.8 N 6 6 3 3 1029.4 1029.8 0.0
30/10:00am 8.0 6.4 6.5 90 0.7 NNE 4 4 2 2 1029.5 1029.9 0.0
30/09:30am 7.7 6.9 6.5 92 0.6 CALM 0 0 0 0 1029.4 1029.8 0.0
30/09:00am 7.3 6.4 6.2 93 0.5 CALM 0 0 0 0 1029.3 1029.7 0.0
30/08:30am 7.2 6.4 6.5 95 0.3 CALM 0 2 0 1 1029.1 1029.5 0.0
30/08:00am 7.1 6.2 6.2 94 0.4 CALM 0 0 0 0 1029.0 1029.4 0.0
30/07:30am 7.0 6.2 6.3 95 0.3 CALM 0 0 0 0 1028.8 1029.2 0.0
30/07:00am 7.1 6.2 6.2 94 0.4 CALM 0 0 0 0 1028.3 1028.7 0.0
30/06:30am 7.2 6.0 6.5 95 0.3 NNE 2 4 1 2 1028.3 1028.7 0.0
30/06:00am 7.5 5.5 6.4 93 0.5 NNE 6 7 3 4 1028.1 1028.5 0.0
30/05:30am 7.7 5.7 6.3 91 0.6 N 6 9 3 5 1028.1 1028.5 0.0
30/05:00am 7.6 6.1 6.7 94 0.4 ENE 4 6 2 3 1028.0 1028.4 0.0
30/04:30am 7.8 5.8 7.1 95 0.3 N 7 9 4 5 1028.1 1028.5 0.0
30/04:00am 7.6 5.8 7.3 98 0.1 ENE 6 6 3 3 1028.2 1028.6 0.0
30/03:30am 7.7 6.3 7.3 97 0.2 ENE 4 4 2 2 1028.4 1028.8 0.0
30/03:00am 7.8 6.4 7.2 96 0.3 ENE 4 4 2 2 1028.5 1028.9 0.0
30/02:30am 8.0 6.6 7.2 95 0.4 ESE 4 6 2 3 1028.4 1028.8 0.0
30/02:00am 8.1 6.2 6.9 92 0.6 WSW 6 7 3 4 1028.5 1028.9 0.0
30/01:30am 8.0 6.2 7.1 94 0.4 NW 6 7 3 4 1028.5 1028.9 0.0
30/01:00am 8.1 6.3 7.0 93 0.5 NW 6 6 3 3 1028.9 1029.3 0.0
30/12:30am 8.1 6.3 7.2 94 0.4 NW 6 6 3 3 1029.3 1029.7 0.0
30/12:00am 8.2 7.6 7.4 95 0.4 CALM 0 0 0 0 1029.5 1029.9 0.0
 
Date/Time
EST
Temp
°C
App
Temp
°C
Dew
Point
Rel
Hum
%
Delta-T
°C
Wind Press
QNH
hPa
Press
MSL
hPa
Rain
since 9 am
mm
Dir
 
Spd
km/h
Gust
km/h
Spd
kts
Gust
kts
29/11:30pm 8.2 7.5 7.1 93 0.5 CALM 0 0 0 0 1029.5 1029.9 0.0
29/11:00pm 8.3 7.6 7.1 92 0.6 CALM 0 0 0 0 1029.6 1030.1 0.0
29/10:30pm 8.5 7.8 7.1 91 0.7 CALM 0 0 0 0 1029.7 1030.2 0.0
29/10:00pm 8.7 8.1 7.5 92 0.6 CALM 0 0 0 0 1029.9 1030.4 0.0
29/09:30pm 8.6 8.0 7.2 91 0.7 CALM 0 0 0 0 1030.0 1030.5 0.0
29/09:00pm 8.7 8.1 7.2 90 0.7 CALM 0 0 0 0 1030.1 1030.6 0.0
29/08:30pm 8.8 8.1 7.1 89 0.8 CALM 0 0 0 0 1030.3 1030.8 0.0
29/08:00pm 8.9 8.3 7.2 89 0.8 CALM 0 0 0 0 1030.3 1030.8 0.0
29/07:30pm 8.9 8.3 7.4 90 0.7 CALM 0 0 0 0 1030.3 1030.8 0.0
29/07:00pm 8.9 8.3 7.4 90 0.7 CALM 0 0 0 0 1030.3 1030.8 0.0
29/06:30pm 9.0 8.4 7.5 90 0.7 CALM 0 0 0 0 1030.4 1030.9 0.0
29/06:00pm 9.3 8.7 7.4 88 0.9 CALM 0 2 0 1 1030.4 1030.9 0.0
29/05:30pm 9.4 8.4 7.2 86 1.1 NNE 2 4 1 2 1030.4 1030.9 0.0
29/05:00pm 9.6 8.5 6.9 83 1.3 NNE 2 2 1 1 1030.6 1031.1 0.0
29/04:30pm 9.6 8.1 6.9 83 1.3 NNE 4 6 2 3 1030.6 1031.1 0.0
29/04:00pm 9.7 7.8 6.8 82 1.4 N 6 7 3 4 1030.7 1031.2 0.0
29/03:30pm 9.7 8.9 6.4 80 1.6 CALM 0 0 0 0 1030.9 1031.4 0.0
29/03:00pm 9.6 8.8 6.3 80 1.5 CALM 0 2 0 1 1031.1 1031.5 0.0
29/02:30pm 9.6 8.0 6.5 81 1.5 SSW 4 6 2 3 1031.3 1031.7 0.0
29/02:00pm 9.6 7.7 6.7 82 1.4 WSW 6 9 3 5 1031.5 1031.9 0.0
29/01:30pm 9.7 9.0 6.8 82 1.4 CALM 0 4 0 2 1031.8 1032.2 0.0
29/01:00pm 9.6 8.4 6.5 81 1.4 NNW 2 4 1 2 1032.0 1032.4 0.0
29/12:30pm 9.5 8.3 6.6 82 1.4 NNE 2 7 1 4 1032.4 1032.8 0.0
29/12:00pm 9.4 7.8 6.5 82 1.4 NE 4 6 2 3 1032.7 1033.1 0.0
29/11:30am 9.1 7.5 6.4 83 1.3 E 4 6 2 3 1033.2 1033.6 0.0
29/11:00am 8.8 7.1 6.1 83 1.2 ESE 4 6 2 3 1033.4 1033.9 0.0
29/10:30am 8.4 6.3 6.0 85 1.1 E 6 7 3 4 1033.5 1034.0 0.0
29/10:00am 8.2 6.6 6.2 87 0.9 NW 4 7 2 4 1033.5 1034.0 0.0
29/09:30am 8.1 6.5 6.2 88 0.9 WNW 4 6 2 3 1033.5 1034.0 0.0
29/09:00am 7.7 6.0 5.8 88 0.9 W 4 6 2 3 1033.4 1033.9 0.0
29/08:30am 7.6 5.6 6.4 92 0.6 SW 6 7 3 4 1033.4 1033.9 0.0
29/08:00am 7.7 5.6 6.0 89 0.8 SW 6 9 3 5 1033.2 1033.6 0.0
29/07:30am 7.8 6.1 5.9 88 0.9 S 4 9 2 5 1033.1 1033.5 0.0
29/07:00am 7.7 5.7 6.2 90 0.7 WSW 6 11 3 6 1033.0 1033.4 0.0
29/06:30am 7.4 5.7 6.0 91 0.6 W 4 6 2 3 1032.9 1033.3 0.0
29/06:00am 7.4 5.8 6.2 92 0.5 WSW 4 7 2 4 1032.9 1033.3 0.0
29/05:30am 7.0 5.5 6.7 98 0.1 W 4 6 2 3 1032.9 1033.3 0.0
29/05:00am 6.6 5.8 6.5 99 0.0 CALM 0 0 0 0 1032.9 1033.3 0.0
29/04:30am 6.5 5.7 6.4 99 0.0 CALM 0 0 0 0 1032.9 1033.3 0.0
29/04:00am 6.4 5.6 6.3 99 0.0 CALM 0 0 0 0 1033.1 1033.5 0.0
29/03:30am 6.3 5.4 6.2 99 0.0 CALM 0 0 0 0 1033.3 1033.8 0.0
29/03:00am 6.1 5.2 6.1 100 0.0 CALM 0 0 0 0 1033.4 1033.9 0.0
29/02:30am 5.9 4.2 5.8 99 0.0 NNW 4 4 2 2 1033.3 1033.8 0.0
29/02:00am 5.6 3.8 5.5 99 0.0 NNW 4 6 2 3 1033.3 1033.8 0.0
29/01:30am 4.6 3.4 4.5 99 0.0 CALM 0 0 0 0 1033.4 1033.9 0.0
29/01:00am 3.5 2.1 3.4 99 0.0 CALM 0 0 0 0 1033.4 1033.9 0.0
29/12:30am 1.9 0.2 1.8 99 0.0 CALM 0 0 0 0 1033.5 1034.0 0.0
29/12:00am 1.5 -0.3 1.4 99 0.0 CALM 0 0 0 0 1033.5 1034.0 0.0
 
Date/Time
EST
Temp
°C
App
Temp
°C
Dew
Point
Rel
Hum
%
Delta-T
°C
Wind Press
QNH
hPa
Press
MSL
hPa
Rain
since 9 am
mm
Dir
 
Spd
km/h
Gust
km/h
Spd
kts
Gust
kts
28/11:30pm 1.9 0.2 1.8 99 0.0 CALM 0 0 0 0 1033.4 1033.9 0.0
28/11:00pm 3.3 0.7 3.2 99 0.0 N 6 7 3 4 1033.5 1034.0 0.0
28/10:30pm 2.7 0.8 2.6 99 0.0 SW 2 9 1 5 1033.8 1034.3 0.0
28/10:00pm 3.8 2.0 3.7 99 0.0 SSW 2 4 1 2 1034.0 1034.5 0.0
28/09:30pm 4.2 2.5 4.1 99 0.0 SSW 2 2 1 1 1034.1 1034.6 0.0
28/09:00pm 4.6 3.4 4.5 99 0.0 CALM 0 0 0 0 1034.1 1034.6 0.0
28/08:30pm 5.8 4.4 5.4 97 0.2 SSW 2 2 1 1 1034.2 1034.7 0.0
28/08:00pm 7.6 6.1 7.0 96 0.3 SSW 4 4 2 2 1034.1 1034.6 0.0
28/07:30pm 7.8 6.3 6.9 94 0.4 SSW 4 6 2 3 1034.1 1034.6 0.0
28/07:00pm 8.7 6.9 7.3 91 0.7 SSW 6 6 3 3 1033.9 1034.4 0.0
28/06:30pm 9.3 7.6 7.6 89 0.8 SW 6 7 3 4 1033.7 1034.2 0.0
28/06:00pm 10.1 8.4 7.7 85 1.2 SSW 6 7 3 4 1033.4 1033.9 0.0
28/05:30pm 10.6 8.4 8.0 84 1.3 SSW 9 13 5 7 1033.3 1033.8 0.0
28/05:00pm 11.2 9.0 7.9 80 1.6 SW 9 13 5 7 1033.2 1033.6 0.0
28/04:30pm 11.9 9.4 8.0 77 1.9 SW 11 15 6 8 1033.0 1033.4 0.0
28/04:00pm 12.3 9.3 7.8 74 2.2 WSW 13 19 7 10 1033.0 1033.4 0.0
28/03:30pm 13.2 9.9 8.1 71 2.6 WSW 15 22 8 12 1032.8 1033.2 0.0
28/03:00pm 13.1 10.6 8.2 72 2.4 WSW 11 24 6 13 1032.7 1033.1 0.0
28/02:30pm 13.6 10.8 8.7 72 2.5 WSW 13 19 7 10 1032.7 1033.1 0.0
28/02:00pm 13.6 9.9 8.0 69 2.8 WNW 17 24 9 13 1032.7 1033.1 0.0
28/01:30pm 12.7 10.3 8.6 76 2.1 WSW 11 15 6 8 1033.1 1033.5 0.0
28/01:00pm 12.0 9.1 8.3 78 1.8 WSW 13 19 7 10 1033.4 1033.9 0.0
28/12:30pm 11.5 8.7 8.7 83 1.4 WSW 13 17 7 9 1033.7 1034.2 0.0
28/12:00pm 11.4 9.1 9.0 85 1.2 WSW 11 17 6 9 1033.9 1034.4 0.0
28/11:30am 11.0 9.6 9.6 91 0.7 W 7 9 4 5 1034.4 1034.9 0.0
28/11:00am 10.6 9.3 10.0 96 0.3 WNW 7 11 4 6 1034.5 1035.0 0.0
28/10:30am 9.7 8.3 9.6 99 0.1 WNW 7 9 4 5 1034.5 1035.0 0.0
28/10:00am 8.7 7.1 8.6 99 0.0 NW 7 9 4 5 1034.4 1034.9 0.0
28/09:30am 8.0 5.8 7.7 98 0.1 NW 9 11 5 6 1034.3 1034.8 0.0
28/09:00am 7.8 6.1 7.5 98 0.1 NNW 6 7 3 4 1034.2 1034.7 0.2
28/08:30am 7.7 5.9 7.3 97 0.2 NW 6 6 3 3 1033.9 1034.4 0.2
28/08:00am 7.4 5.6 7.1 98 0.1 W 6 9 3 5 1033.7 1034.2 0.2
28/07:30am 7.1 6.4 7.0 99 0.0 CALM 0 0 0 0 1033.5 1034.0 0.2
28/07:00am 6.8 5.2 6.4 97 0.2 NNW 4 7 2 4 1033.1 1033.5 0.2
28/06:30am 7.0 5.0 6.4 96 0.3 NW 6 9 3 5 1032.9 1033.3 0.2
28/06:00am 7.1 5.5 6.5 96 0.3 NNW 4 7 2 4 1032.7 1033.1 0.2
28/05:30am 7.1 4.6 6.4 95 0.3 NNW 9 13 5 7 1032.4 1032.8 0.2
28/05:00am 7.2 4.3 6.5 95 0.3 NNW 11 15 6 8 1032.3 1032.7 0.2
28/04:30am 7.1 4.2 6.5 96 0.3 NNW 11 13 6 7 1032.2 1032.6 0.2
28/04:00am 7.2 4.3 6.3 94 0.4 NNW 11 15 6 8 1032.3 1032.7 0.2
28/03:30am 6.9 4.7 6.0 94 0.4 NNW 7 9 4 5 1032.4 1032.8 0.2
28/03:00am 7.1 4.9 6.4 95 0.3 NNW 7 11 4 6 1032.5 1032.9 0.2
28/02:30am 6.8 4.2 5.9 94 0.4 NNW 9 13 5 7 1032.3 1032.7 0.2
28/02:00am 6.3 3.6 5.6 95 0.3 NNW 9 13 5 7 1032.2 1032.6 0.2
28/01:30am 6.4 3.4 5.8 96 0.3 NNW 11 15 6 8 1032.3 1032.7 0.2
28/01:00am 6.2 3.1 5.5 95 0.3 N 11 15 6 8 1032.5 1032.9 0.2
28/12:30am 6.2 3.1 5.5 95 0.3 N 11 15 6 8 1032.6 1033.0 0.2
28/12:00am 6.6 3.2 5.7 94 0.4 NNW 13 17 7 9 1032.5 1032.9 0.2
 
Date/Time
EST
Temp
°C
App
Temp
°C
Dew
Point
Rel
Hum
%
Delta-T
°C
Wind Press
QNH
hPa
Press
MSL
hPa
Rain
since 9 am
mm
Dir
 
Spd
km/h
Gust
km/h
Spd
kts
Gust
kts
27/11:30pm 6.8 3.4 5.7 93 0.5 NNW 13 19 7 10 1032.5 1032.9 0.2
27/11:00pm 7.0 3.2 5.9 93 0.5 NNW 15 19 8 10 1032.5 1032.9 0.2
27/10:30pm 7.3 3.6 6.2 93 0.5 N 15 19 8 10 1032.4 1032.8 0.2
27/10:00pm 7.6 3.5 6.4 92 0.5 N 17 22 9 12 1032.4 1032.8 0.2
27/09:30pm 7.8 4.2 6.6 92 0.6 N 15 20 8 11 1032.4 1032.8 0.2
27/09:00pm 8.3 5.2 7.1 92 0.6 NNW 13 17 7 9 1032.6 1033.0 0.2
27/08:30pm 8.2 5.8 7.1 93 0.5 NNW 9 11 5 6 1032.7 1033.1 0.2
27/08:00pm 8.9 6.3 7.7 92 0.6 N 11 15 6 8 1032.6 1033.0 0.2
27/07:30pm 9.1 5.8 8.2 94 0.4 N 15 19 8 10 1032.3 1032.7 0.2
27/07:00pm 9.1 6.3 8.5 96 0.3 N 13 19 7 10 1032.1 1032.5 0.2
27/06:30pm 9.3 6.7 9.2 99 0.0 N 13 15 7 8 1032.0 1032.4 0.2
27/06:00pm 9.3 7.4 9.2 99 0.0 NNW 9 13 5 7 1032.0 1032.4 0.2
27/05:30pm 9.6 7.3 9.0 96 0.3 NNW 11 17 6 9 1032.0 1032.4 0.2
27/05:00pm 10.0 7.3 8.9 93 0.5 NW 13 17 7 9 1031.8 1032.2 0.0
27/04:30pm 11.0 7.7 8.1 82 1.4 NW 15 19 8 10 1031.6 1032.0 0.0
27/04:00pm 11.3 8.4 8.0 80 1.6 NNW 13 17 7 9 1031.3 1031.7 0.0
27/03:30pm 11.5 8.1 7.8 78 1.8 NNW 15 22 8 12 1030.9 1031.4 0.0

Other Formats:

Comma delimited format used in spreadsheet applications
http://www.bom.gov.au/fwo/IDV60801/IDV60801.95840.axf

JavaScript Object Notation format (JSON) in row-major order
http://www.bom.gov.au/fwo/IDV60801/IDV60801.95840.json